createdAt,value
2023-01-21T00:01:48.614Z,4.80
2023-01-21T00:04:16.977Z,4.80
2023-01-21T00:06:45.808Z,4.70
2023-01-21T00:09:14.902Z,4.50
2023-01-21T00:11:44.437Z,4.20
2023-01-21T00:14:13.495Z,4.10
2023-01-21T00:16:41.617Z,4.00
2023-01-21T00:19:09.857Z,4.00
2023-01-21T00:21:38.078Z,3.90
2023-01-21T00:24:06.586Z,3.90
2023-01-21T00:26:35.029Z,4.00
2023-01-21T00:29:05.373Z,4.00
2023-01-21T00:31:34.239Z,4.00
2023-01-21T00:34:02.978Z,4.10
2023-01-21T00:36:31.374Z,4.20
2023-01-21T00:38:59.693Z,4.30
2023-01-21T00:41:27.919Z,4.20
2023-01-21T00:43:56.202Z,4.30
2023-01-21T00:46:26.108Z,4.20
2023-01-21T00:48:56.073Z,4.20
2023-01-21T00:51:24.684Z,4.20
2023-01-21T00:53:52.908Z,4.20
2023-01-21T00:56:21.429Z,4.30
2023-01-21T00:58:50.035Z,4.40
2023-01-21T01:01:20.538Z,4.40
2023-01-21T01:03:51.184Z,4.40
2023-01-21T01:06:21.299Z,4.50
2023-01-21T01:08:50.533Z,4.60
2023-01-21T01:11:21.523Z,4.50
2023-01-21T01:13:49.891Z,4.60
2023-01-21T01:16:18.808Z,4.60
2023-01-21T01:18:49.037Z,4.50
2023-01-21T01:21:19.620Z,4.30
2023-01-21T01:23:48.982Z,4.20
2023-01-21T01:26:18.832Z,4.10
2023-01-21T01:28:47.844Z,4.00
2023-01-21T01:31:21.059Z,4.10
2023-01-21T01:33:50.756Z,4.10
2023-01-21T01:36:23.483Z,4.20
2023-01-21T01:38:52.292Z,4.20
2023-01-21T01:41:23.698Z,4.10
2023-01-21T01:43:58.049Z,4.10
2023-01-21T01:46:28.533Z,4.10
2023-01-21T01:49:03.481Z,4.00
2023-01-21T01:51:40.422Z,4.00
2023-01-21T01:54:10.851Z,4.00
2023-01-21T01:56:41.273Z,4.00
2023-01-21T01:59:09.528Z,4.00
2023-01-21T02:01:38.628Z,4.00
2023-01-21T02:04:13.188Z,4.00
2023-01-21T02:06:42.412Z,4.00
2023-01-21T02:09:10.664Z,4.00
2023-01-21T02:11:38.874Z,3.90
2023-01-21T02:14:07.278Z,3.90
2023-01-21T02:17:01.371Z,3.80
2023-01-21T02:19:56.461Z,3.80
2023-01-21T02:22:33.035Z,3.70
2023-01-21T02:25:35.848Z,3.70
2023-01-21T02:28:41.171Z,3.70
2023-01-21T02:31:35.219Z,3.70
2023-01-21T02:34:28.503Z,3.60
2023-01-21T02:37:07.329Z,3.60
2023-01-21T02:40:04.690Z,3.60
2023-01-21T02:42:39.754Z,3.70
2023-01-21T02:45:15.684Z,3.70
2023-01-21T02:47:53.860Z,3.60
2023-01-21T02:50:27.436Z,3.60
2023-01-21T02:52:59.681Z,3.60
2023-01-21T02:55:31.305Z,3.40
2023-01-21T02:58:02.484Z,3.50
2023-01-21T03:00:43.124Z,3.50
2023-01-21T03:03:33.114Z,3.50
2023-01-21T03:06:36.985Z,3.50
2023-01-21T03:09:18.549Z,3.40
2023-01-21T03:11:58.012Z,3.30
2023-01-21T03:14:49.084Z,3.30
2023-01-21T03:17:28.768Z,3.30
2023-01-21T03:20:02.957Z,3.20
2023-01-21T03:22:36.180Z,3.20
2023-01-21T03:25:08.222Z,3.20
2023-01-21T03:27:42.905Z,3.10
2023-01-21T03:30:15.261Z,3.10
2023-01-21T03:32:45.709Z,3.00
2023-01-21T03:35:18.060Z,2.90
2023-01-21T03:37:52.970Z,3.00
2023-01-21T03:40:26.023Z,3.00
2023-01-21T03:42:56.353Z,3.00
2023-01-21T03:45:35.179Z,3.10
2023-01-21T03:48:11.161Z,3.20
2023-01-21T03:50:42.355Z,3.10
2023-01-21T03:53:10.992Z,3.10
2023-01-21T03:55:40.494Z,3.00
2023-01-21T03:58:08.745Z,3.20
2023-01-21T04:00:36.939Z,3.10
2023-01-21T04:03:08.153Z,2.90
2023-01-21T04:05:36.463Z,3.00
2023-01-21T04:08:05.174Z,2.90
2023-01-21T04:10:33.368Z,2.90
2023-01-21T04:13:02.866Z,2.90
2023-01-21T04:15:31.047Z,2.70
2023-01-21T04:17:59.162Z,2.70
2023-01-21T04:20:27.364Z,2.70
2023-01-21T04:22:55.947Z,2.60
2023-01-21T04:25:24.130Z,2.60
2023-01-21T04:27:52.331Z,2.70
2023-01-21T04:30:22.088Z,2.80
2023-01-21T04:32:50.430Z,2.80
2023-01-21T04:35:18.602Z,3.10
2023-01-21T04:37:46.941Z,3.00
2023-01-21T04:40:15.723Z,3.00
2023-01-21T04:42:44.072Z,3.10
2023-01-21T04:45:12.772Z,3.00
2023-01-21T04:47:43.976Z,2.90
2023-01-21T04:50:14.269Z,2.80
2023-01-21T04:52:43.398Z,2.90
2023-01-21T04:55:11.934Z,2.90
2023-01-21T04:57:40.197Z,2.80
2023-01-21T05:00:09.575Z,2.70
2023-01-21T05:02:38.131Z,2.70
2023-01-21T05:05:08.661Z,2.60
2023-01-21T05:07:37.801Z,2.50
2023-01-21T05:10:07.113Z,2.50
2023-01-21T05:12:35.226Z,2.30
2023-01-21T05:15:04.828Z,2.20
2023-01-21T05:17:33.277Z,2.20
2023-01-21T05:20:01.531Z,2.20
2023-01-21T05:22:31.053Z,2.10
2023-01-21T05:25:00.559Z,2.00
2023-01-21T05:27:28.956Z,1.90
2023-01-21T05:29:57.954Z,1.70
2023-01-21T05:32:26.107Z,1.60
2023-01-21T05:34:54.307Z,1.40
2023-01-21T05:37:22.533Z,1.30
2023-01-21T05:39:52.094Z,1.30
2023-01-21T05:42:20.301Z,1.20
2023-01-21T05:44:48.555Z,1.30
2023-01-21T05:47:17.834Z,1.30
2023-01-21T05:49:46.005Z,1.30
2023-01-21T05:52:14.192Z,1.30
2023-01-21T05:54:59.974Z,1.40
2023-01-21T05:57:31.185Z,1.30
2023-01-21T05:59:59.983Z,1.30
2023-01-21T06:02:28.622Z,1.30
2023-01-21T06:04:56.838Z,1.30
2023-01-21T06:07:25.126Z,1.30
2023-01-21T06:09:53.395Z,1.50
2023-01-21T06:12:23.827Z,1.40
2023-01-21T06:14:54.351Z,1.20
2023-01-21T06:17:22.544Z,1.20
2023-01-21T06:19:50.720Z,1.20
2023-01-21T06:22:19.641Z,1.20
2023-01-21T06:24:48.141Z,1.20
2023-01-21T06:27:16.332Z,1.20
2023-01-21T06:29:44.469Z,1.20
2023-01-21T06:32:14.219Z,1.30
2023-01-21T06:34:42.386Z,1.40
2023-01-21T06:37:10.590Z,1.30
2023-01-21T06:39:38.834Z,1.50
2023-01-21T06:42:07.255Z,1.30
2023-01-21T06:44:35.761Z,1.20
2023-01-21T06:47:04.206Z,1.20
2023-01-21T06:49:33.699Z,1.20
2023-01-21T06:52:02.251Z,1.30
2023-01-21T06:54:30.671Z,1.40
2023-01-21T06:56:58.982Z,1.50
2023-01-21T06:59:27.269Z,1.50
2023-01-21T07:01:58.963Z,1.60
2023-01-21T07:04:28.326Z,1.60
2023-01-21T07:06:57.959Z,1.60
2023-01-21T07:09:28.456Z,1.60
2023-01-21T07:11:56.668Z,1.60
2023-01-21T07:14:24.863Z,1.70
2023-01-21T07:16:55.025Z,1.70
2023-01-21T07:19:23.294Z,1.80
2023-01-21T07:21:51.984Z,1.80
2023-01-21T07:24:24.716Z,1.90
2023-01-21T07:26:52.889Z,1.90
2023-01-21T07:29:23.164Z,1.90
2023-01-21T07:31:51.537Z,1.90
2023-01-21T07:34:19.912Z,1.90
2023-01-21T07:36:48.081Z,1.70
2023-01-21T07:39:16.421Z,2.00
2023-01-21T07:41:46.628Z,2.00
2023-01-21T07:44:14.911Z,2.10
2023-01-21T07:46:43.869Z,2.10
2023-01-21T07:49:17.114Z,2.10
2023-01-21T07:51:45.843Z,2.10
2023-01-21T07:54:15.006Z,2.10
2023-01-21T07:56:46.211Z,2.20
2023-01-21T07:59:15.153Z,2.20
2023-01-21T08:01:43.544Z,2.30
2023-01-21T08:04:12.456Z,2.40
2023-01-21T08:06:41.441Z,2.50
2023-01-21T08:09:10.523Z,2.50
2023-01-21T08:11:39.700Z,2.50
2023-01-21T08:14:09.376Z,2.50
2023-01-21T08:16:37.698Z,2.60
2023-01-21T08:19:06.226Z,2.40
2023-01-21T08:21:34.993Z,2.40
2023-01-21T08:24:03.447Z,2.40
2023-01-21T08:26:31.893Z,2.40
2023-01-21T08:29:00.851Z,2.40
2023-01-21T08:31:35.178Z,2.50
2023-01-21T08:34:18.529Z,2.50
2023-01-21T08:37:02.291Z,2.50
2023-01-21T08:39:45.507Z,2.60
2023-01-21T08:42:28.813Z,2.60
2023-01-21T08:45:15.328Z,2.60
2023-01-21T08:48:00.052Z,2.60
2023-01-21T08:50:43.360Z,2.50
2023-01-21T08:53:26.792Z,2.50
2023-01-21T08:56:10.461Z,2.50
2023-01-21T08:58:56.101Z,2.50
2023-01-21T09:01:40.996Z,2.50
2023-01-21T09:04:25.876Z,2.40
2023-01-21T09:07:09.055Z,2.40
2023-01-21T09:09:37.510Z,2.30
2023-01-21T09:12:06.799Z,2.20
2023-01-21T09:14:35.354Z,2.30
2023-01-21T09:17:03.730Z,2.30
2023-01-21T09:19:34.027Z,2.40
2023-01-21T09:22:02.323Z,2.40
2023-01-21T09:24:30.639Z,2.40
2023-01-21T09:26:58.834Z,2.50
2023-01-21T09:29:27.076Z,2.60
2023-01-21T09:31:55.394Z,2.70
2023-01-21T09:34:23.543Z,2.70
2023-01-21T09:36:53.491Z,2.70
2023-01-21T09:39:21.690Z,2.90
2023-01-21T09:41:53.202Z,3.00
2023-01-21T09:44:28.515Z,3.10
2023-01-21T09:47:01.727Z,3.10
2023-01-21T09:49:34.311Z,3.10
2023-01-21T09:52:14.375Z,3.10
2023-01-21T09:54:42.769Z,3.00
2023-01-21T09:57:40.836Z,3.00
2023-01-21T10:00:30.572Z,3.00
2023-01-21T10:03:19.543Z,2.90
2023-01-21T10:06:09.701Z,2.80
2023-01-21T10:08:52.311Z,2.70
2023-01-21T10:11:35.703Z,2.70
2023-01-21T10:14:26.097Z,2.60
2023-01-21T10:17:03.937Z,2.60
2023-01-21T10:19:40.521Z,2.60
2023-01-21T10:22:24.506Z,2.60
2023-01-21T10:25:01.343Z,2.60
2023-01-21T10:27:39.511Z,2.70
2023-01-21T10:30:24.887Z,2.50
2023-01-21T10:32:56.963Z,2.50
2023-01-21T10:35:48.555Z,2.60
2023-01-21T10:38:26.538Z,2.60
2023-01-21T10:41:03.520Z,2.60
2023-01-21T10:43:39.892Z,2.60
2023-01-21T10:46:18.265Z,2.60
2023-01-21T10:49:03.897Z,2.60
2023-01-21T10:51:46.037Z,2.60
2023-01-21T10:54:43.245Z,2.60
2023-01-21T10:57:42.919Z,2.70
2023-01-21T11:00:29.637Z,2.60
2023-01-21T11:03:32.911Z,2.50
2023-01-21T11:06:04.360Z,2.50
2023-01-21T11:08:33.023Z,2.40
2023-01-21T11:11:02.661Z,2.40
2023-01-21T11:13:32.231Z,2.50
2023-01-21T11:16:01.316Z,2.50
2023-01-21T11:18:33.419Z,2.50
2023-01-21T11:21:04.573Z,2.60
2023-01-21T11:23:35.273Z,2.60
2023-01-21T11:26:08.726Z,2.50
2023-01-21T11:28:40.044Z,2.80
2023-01-21T11:31:14.377Z,2.90
2023-01-21T11:33:45.567Z,3.00
2023-01-21T11:36:16.809Z,2.80
2023-01-21T11:38:47.827Z,2.70
2023-01-21T11:41:20.439Z,2.60
2023-01-21T11:43:53.573Z,2.60
2023-01-21T11:46:31.844Z,2.70
2023-01-21T11:49:29.917Z,2.70
2023-01-21T11:52:16.155Z,2.80
2023-01-21T11:54:46.203Z,2.80
2023-01-21T11:57:29.677Z,2.70
2023-01-21T12:00:20.677Z,2.60
2023-01-21T12:03:07.108Z,2.50
2023-01-21T12:05:52.836Z,2.50
2023-01-21T12:08:41.070Z,2.50
2023-01-21T12:11:26.340Z,2.40
2023-01-21T12:14:21.563Z,2.40
2023-01-21T12:17:14.009Z,2.40
2023-01-21T12:20:14.564Z,2.50
2023-01-21T12:23:14.799Z,2.40
2023-01-21T12:25:49.418Z,2.30
2023-01-21T12:28:32.668Z,2.20
2023-01-21T12:31:25.129Z,2.20
2023-01-21T12:34:09.007Z,2.10
2023-01-21T12:36:53.989Z,2.20
2023-01-21T12:39:38.666Z,2.20
2023-01-21T12:42:25.324Z,2.20
2023-01-21T12:45:15.473Z,2.30
2023-01-21T12:48:04.020Z,2.30
2023-01-21T12:50:42.165Z,2.30
2023-01-21T12:53:33.541Z,2.30
2023-01-21T12:56:24.819Z,2.40
2023-01-21T12:59:16.227Z,2.30
2023-01-21T13:01:56.251Z,2.40
2023-01-21T13:04:40.324Z,2.50
2023-01-21T13:07:21.677Z,2.60
2023-01-21T13:10:15.336Z,2.70
2023-01-21T13:13:11.526Z,2.60
2023-01-21T13:15:45.732Z,2.70
2023-01-21T13:18:27.451Z,2.70
2023-01-21T13:21:22.731Z,2.70
2023-01-21T13:24:16.836Z,2.70
2023-01-21T13:26:58.214Z,2.70
2023-01-21T13:29:38.131Z,2.70
2023-01-21T13:32:29.796Z,2.70
2023-01-21T13:35:18.827Z,2.80
2023-01-21T13:37:58.664Z,2.70
2023-01-21T13:40:40.644Z,2.70
2023-01-21T13:43:25.313Z,2.70
2023-01-21T13:46:06.759Z,2.60
2023-01-21T13:49:06.624Z,2.60
2023-01-21T13:51:46.874Z,2.60
2023-01-21T13:54:42.435Z,2.60
2023-01-21T13:57:32.848Z,2.50
2023-01-21T14:00:07.836Z,2.60
2023-01-21T14:02:48.952Z,2.60
2023-01-21T14:05:23.609Z,2.60
2023-01-21T14:07:58.079Z,2.60
2023-01-21T14:10:31.934Z,2.60
2023-01-21T14:13:31.854Z,2.70
2023-01-21T14:16:25.280Z,2.70
2023-01-21T14:19:21.178Z,2.60
2023-01-21T14:22:11.764Z,2.50
2023-01-21T14:24:55.785Z,2.50
2023-01-21T14:27:31.960Z,2.50
2023-01-21T14:30:10.308Z,2.60
2023-01-21T14:32:45.493Z,2.60
2023-01-21T14:35:23.776Z,2.60
2023-01-21T14:37:56.819Z,2.60
2023-01-21T14:40:30.133Z,2.60
2023-01-21T14:42:59.136Z,2.60
2023-01-21T14:45:53.637Z,2.50
2023-01-21T14:48:32.920Z,2.50
2023-01-21T14:51:13.217Z,2.50
2023-01-21T14:53:47.538Z,2.50
2023-01-21T14:56:23.327Z,2.50
2023-01-21T14:58:54.530Z,2.50
2023-01-21T15:01:32.924Z,2.50
2023-01-21T15:04:05.087Z,2.40
2023-01-21T15:06:39.849Z,2.50
2023-01-21T15:09:09.270Z,2.60
2023-01-21T15:11:39.969Z,2.60
2023-01-21T15:14:16.716Z,2.50
2023-01-21T15:16:48.032Z,2.50
2023-01-21T15:19:26.331Z,2.50
2023-01-21T15:22:23.726Z,2.30
2023-01-21T15:25:20.437Z,2.40
2023-01-21T15:28:29.075Z,2.50
2023-01-21T15:31:01.732Z,2.60
2023-01-21T15:33:32.563Z,2.50
2023-01-21T15:36:02.513Z,2.40
2023-01-21T15:38:30.862Z,2.40
2023-01-21T15:41:03.490Z,2.30
2023-01-21T15:43:37.151Z,2.30
2023-01-21T15:46:22.771Z,2.20
2023-01-21T15:49:10.038Z,2.30
2023-01-21T15:51:49.112Z,2.30
2023-01-21T15:54:30.239Z,2.30
2023-01-21T15:57:11.726Z,2.40
2023-01-21T15:59:59.718Z,2.50
2023-01-21T16:02:31.804Z,2.50
2023-01-21T16:05:26.188Z,2.60
2023-01-21T16:08:04.088Z,2.70
2023-01-21T16:10:38.539Z,2.70
2023-01-21T16:13:16.972Z,2.70
2023-01-21T16:15:58.684Z,2.80
2023-01-21T16:18:32.820Z,2.80
2023-01-21T16:21:04.699Z,2.80
2023-01-21T16:23:38.046Z,2.90
2023-01-21T16:26:06.487Z,2.80
2023-01-21T16:28:43.024Z,2.80
2023-01-21T16:31:11.468Z,2.70
2023-01-21T16:33:39.826Z,2.60
2023-01-21T16:36:14.297Z,2.60
2023-01-21T16:38:44.950Z,2.70
2023-01-21T16:41:27.560Z,2.70
2023-01-21T16:43:59.571Z,2.70
2023-01-21T16:46:32.726Z,2.70
2023-01-21T16:49:04.658Z,2.80
2023-01-21T16:51:36.255Z,2.80
2023-01-21T16:54:27.106Z,2.80
2023-01-21T16:56:58.160Z,2.90
2023-01-21T16:59:29.175Z,2.80
2023-01-21T17:01:59.583Z,2.80
2023-01-21T17:04:29.901Z,2.70
2023-01-21T17:07:00.282Z,2.70
2023-01-21T17:09:33.158Z,2.70
2023-01-21T17:12:05.840Z,2.70
2023-01-21T17:14:36.289Z,2.70
2023-01-21T17:17:08.528Z,2.80
2023-01-21T17:19:39.791Z,2.80
2023-01-21T17:22:15.718Z,2.80
2023-01-21T17:24:56.627Z,2.80
2023-01-21T17:27:26.286Z,2.90
2023-01-21T17:29:54.692Z,2.90
2023-01-21T17:32:27.760Z,2.90
2023-01-21T17:35:12.907Z,3.00
2023-01-21T17:37:45.599Z,3.00
2023-01-21T17:40:33.046Z,3.10
2023-01-21T17:43:10.223Z,3.10
2023-01-21T17:45:44.858Z,3.00
2023-01-21T17:48:23.903Z,3.10
2023-01-21T17:50:52.739Z,3.30
2023-01-21T17:53:26.865Z,3.40
2023-01-21T17:56:01.760Z,3.40
2023-01-21T17:58:52.745Z,3.40
2023-01-21T18:01:22.164Z,3.40
2023-01-21T18:03:50.601Z,3.30
2023-01-21T18:06:21.546Z,3.20
2023-01-21T18:08:52.771Z,3.10
2023-01-21T18:11:22.154Z,3.10
2023-01-21T18:13:52.452Z,3.00
2023-01-21T18:16:21.020Z,3.00
2023-01-21T18:18:50.622Z,3.10
2023-01-21T18:21:21.130Z,3.00
2023-01-21T18:23:51.062Z,3.10
2023-01-21T18:26:28.266Z,3.10
2023-01-21T18:28:56.913Z,3.10
2023-01-21T18:31:25.420Z,3.10
2023-01-21T18:33:53.670Z,3.10
2023-01-21T18:36:22.216Z,3.20
2023-01-21T18:38:51.803Z,3.20
2023-01-21T18:41:20.176Z,3.30
2023-01-21T18:43:48.402Z,3.30
2023-01-21T18:46:19.638Z,3.40
2023-01-21T18:48:48.248Z,3.30
2023-01-21T18:51:16.718Z,3.20
2023-01-21T18:53:45.020Z,3.20
2023-01-21T18:56:16.881Z,3.10
2023-01-21T18:58:45.607Z,3.10
2023-01-21T19:01:23.148Z,3.10
2023-01-21T19:03:53.750Z,3.00
2023-01-21T19:06:24.368Z,3.00
2023-01-21T19:08:53.022Z,2.90
2023-01-21T19:11:23.774Z,3.00
2023-01-21T19:13:52.252Z,3.00
2023-01-21T19:16:21.719Z,3.00
2023-01-21T19:18:50.294Z,2.90
2023-01-21T19:21:18.633Z,2.80
2023-01-21T19:23:47.192Z,2.70
2023-01-21T19:26:15.594Z,2.70
2023-01-21T19:28:45.532Z,2.70
2023-01-21T19:31:14.048Z,2.80
2023-01-21T19:33:45.600Z,2.80
2023-01-21T19:36:16.584Z,2.70
2023-01-21T19:38:49.778Z,2.60
2023-01-21T19:41:18.161Z,2.70
2023-01-21T19:43:47.762Z,2.80
2023-01-21T19:46:16.324Z,2.80
2023-01-21T19:48:44.882Z,2.80
2023-01-21T19:51:13.776Z,2.90
2023-01-21T19:53:42.112Z,2.80
2023-01-21T19:56:16.560Z,2.80
2023-01-21T19:58:45.131Z,2.80
2023-01-21T20:01:14.899Z,2.90
2023-01-21T20:03:58.588Z,2.90
2023-01-21T20:06:31.081Z,2.90
2023-01-21T20:09:01.174Z,2.80
2023-01-21T20:11:29.694Z,2.60
2023-01-21T20:13:58.585Z,2.60
2023-01-21T20:16:28.347Z,2.50
2023-01-21T20:19:02.227Z,2.50
2023-01-21T20:21:30.614Z,2.70
2023-01-21T20:23:58.771Z,2.70
2023-01-21T20:26:28.952Z,2.70
2023-01-21T20:29:03.101Z,2.80
2023-01-21T20:31:33.037Z,2.80
2023-01-21T20:34:01.649Z,2.80
2023-01-21T20:36:30.541Z,2.80
2023-01-21T20:38:58.777Z,2.80
2023-01-21T20:41:28.003Z,2.70
2023-01-21T20:43:57.416Z,2.70
2023-01-21T20:46:28.343Z,2.70
2023-01-21T20:48:58.890Z,2.80
2023-01-21T20:51:27.365Z,2.80
2023-01-21T20:53:55.752Z,2.80
2023-01-21T20:56:27.711Z,2.80
2023-01-21T20:58:59.927Z,2.80
2023-01-21T21:01:29.245Z,2.80
2023-01-21T21:03:58.896Z,2.80
2023-01-21T21:06:28.857Z,2.70
2023-01-21T21:08:57.590Z,2.70
2023-01-21T21:11:25.855Z,2.60
2023-01-21T21:13:57.168Z,2.70
2023-01-21T21:16:29.102Z,2.70
2023-01-21T21:18:59.488Z,2.70
2023-01-21T21:21:27.817Z,2.70
2023-01-21T21:23:56.030Z,2.70
2023-01-21T21:26:26.074Z,2.70
2023-01-21T21:28:55.614Z,2.80
2023-01-21T21:31:24.874Z,2.80
2023-01-21T21:33:53.213Z,2.80
2023-01-21T21:36:24.679Z,2.80
2023-01-21T21:38:55.533Z,2.80
2023-01-21T21:41:43.319Z,2.70
2023-01-21T21:44:12.283Z,2.70
2023-01-21T21:47:10.355Z,2.70
2023-01-21T21:49:39.773Z,2.80
2023-01-21T21:52:09.401Z,2.80
2023-01-21T21:54:38.019Z,2.70
2023-01-21T21:57:06.182Z,2.70
2023-01-21T21:59:34.490Z,2.70
2023-01-21T22:02:06.537Z,2.70
2023-01-21T22:04:35.062Z,2.80
2023-01-21T22:07:03.475Z,2.80
2023-01-21T22:09:34.125Z,2.90
2023-01-21T22:12:02.525Z,2.90
2023-01-21T22:14:30.804Z,2.90
2023-01-21T22:16:59.122Z,2.90
2023-01-21T22:19:27.400Z,2.80
2023-01-21T22:21:55.709Z,2.80
2023-01-21T22:24:24.095Z,2.80
2023-01-21T22:26:53.658Z,2.80
2023-01-21T22:29:21.888Z,2.80
2023-01-21T22:31:50.208Z,2.90
2023-01-21T22:34:18.475Z,2.80
2023-01-21T22:36:48.193Z,2.80
2023-01-21T22:39:16.601Z,2.80
2023-01-21T22:41:44.900Z,2.80
2023-01-21T22:44:14.429Z,2.80
2023-01-21T22:46:42.659Z,2.80
2023-01-21T22:49:12.061Z,2.80
2023-01-21T22:51:41.219Z,2.80
2023-01-21T22:54:09.436Z,2.80
2023-01-21T22:56:51.648Z,2.70
2023-01-21T22:59:22.261Z,2.70
2023-01-21T23:01:51.286Z,2.70
2023-01-21T23:04:19.602Z,2.70
2023-01-21T23:06:48.864Z,2.70
2023-01-21T23:09:17.240Z,2.70
2023-01-21T23:11:46.014Z,2.70
2023-01-21T23:14:14.310Z,2.70
2023-01-21T23:16:44.516Z,2.70
2023-01-21T23:19:13.127Z,2.70
2023-01-21T23:21:41.745Z,2.60
2023-01-21T23:24:10.059Z,2.60
2023-01-21T23:26:38.603Z,2.60
2023-01-21T23:29:06.861Z,2.70
2023-01-21T23:31:35.319Z,2.60
2023-01-21T23:34:05.134Z,2.50
2023-01-21T23:36:33.359Z,2.40
2023-01-21T23:39:01.743Z,2.30
2023-01-21T23:41:29.968Z,2.40
2023-01-21T23:44:00.713Z,2.40
2023-01-21T23:46:29.086Z,2.50
2023-01-21T23:48:57.529Z,2.70
2023-01-21T23:51:27.141Z,2.60
2023-01-21T23:53:57.093Z,2.60
2023-01-21T23:56:26.771Z,2.50
2023-01-21T23:58:55.296Z,2.60
